Passyunk, Pennsylvania
Current Conditions -  °F | °C
As of 8:13 AM on Wednesday 26 Nov 2014 (Local Time) from KPHL Reporting Station
Moderate Rain Moderate Rain  
Wind Chill: 36°   Ceiling: 1500
Heat Index: 41°   Visibility: 2.5mi
Dew Point: 37°   Wind: 7mph
Humidity: 86%   Direction: 60°ENE
Pressure: 30.11"   Gusts: NA
Location:  39.911°N, 75.1534°W
Report Text: KPHL 261313Z 06006KT 2 1/2SM RA BR BKN015 BKN022 OVC030 05/03 A3011 RMK AO2 P0003 T00500028 $
Loading
Personal Weather Stations






























Interactive Weather Map New forecast layout! Learn more

10-Day Weather Forecast

Advertisements
Track Severe Weather on mobile